createdAt,value
2023-03-22T00:01:37.717Z,99.90
2023-03-22T00:04:04.672Z,99.90
2023-03-22T00:06:31.466Z,99.90
2023-03-22T00:08:58.207Z,99.90
2023-03-22T00:11:25.998Z,99.90
2023-03-22T00:13:53.655Z,99.90
2023-03-22T00:16:21.768Z,99.90
2023-03-22T00:18:48.652Z,99.90
2023-03-22T00:21:16.702Z,99.90
2023-03-22T00:23:44.327Z,99.90
2023-03-22T00:26:12.581Z,99.90
2023-03-22T00:28:39.836Z,99.90
2023-03-22T00:31:07.108Z,99.90
2023-03-22T00:33:34.064Z,99.90
2023-03-22T00:36:04.677Z,99.90
2023-03-22T00:38:42.404Z,99.90
2023-03-22T00:41:12.796Z,99.90
2023-03-22T00:43:39.609Z,99.90
2023-03-22T00:46:06.830Z,99.90
2023-03-22T00:48:33.755Z,99.90
2023-03-22T00:51:01.004Z,99.90
2023-03-22T00:53:29.154Z,99.90
2023-03-22T00:55:59.331Z,99.90
2023-03-22T00:58:26.074Z,99.90
2023-03-22T01:00:52.922Z,99.90
2023-03-22T01:03:21.920Z,99.90
2023-03-22T01:05:49.456Z,99.90
2023-03-22T01:08:17.898Z,99.90
2023-03-22T01:10:45.344Z,99.90
2023-03-22T01:13:12.880Z,99.90
2023-03-22T01:15:39.939Z,99.90
2023-03-22T01:18:07.622Z,99.90
2023-03-22T01:20:35.594Z,99.90
2023-03-22T01:23:02.421Z,99.90
2023-03-22T01:25:29.253Z,99.90
2023-03-22T01:27:56.032Z,99.90
2023-03-22T01:30:22.690Z,99.90
2023-03-22T01:32:49.570Z,99.90
2023-03-22T01:35:16.519Z,99.90
2023-03-22T01:37:43.317Z,99.90
2023-03-22T01:40:12.422Z,99.90
2023-03-22T01:42:39.355Z,99.90
2023-03-22T01:45:14.882Z,99.90
2023-03-22T01:47:56.005Z,99.90
2023-03-22T01:50:24.424Z,99.90
2023-03-22T01:52:52.156Z,99.90
2023-03-22T01:55:23.343Z,99.90
2023-03-22T01:57:51.545Z,99.90
2023-03-22T02:00:19.020Z,99.90
2023-03-22T02:02:49.203Z,99.90
2023-03-22T02:05:17.286Z,99.90
2023-03-22T02:07:44.816Z,99.90
2023-03-22T02:10:17.574Z,99.90
2023-03-22T02:12:58.409Z,99.90
2023-03-22T02:15:51.162Z,99.90
2023-03-22T02:18:27.054Z,99.90
2023-03-22T02:21:11.910Z,99.90
2023-03-22T02:23:50.526Z,99.90
2023-03-22T02:26:39.393Z,99.90
2023-03-22T02:29:17.818Z,99.90
2023-03-22T02:32:16.500Z,99.90
2023-03-22T02:34:46.321Z,99.90
2023-03-22T02:37:28.417Z,99.90
2023-03-22T02:40:13.896Z,99.90
2023-03-22T02:43:02.106Z,99.90
2023-03-22T02:45:50.630Z,99.90
2023-03-22T02:48:26.513Z,99.90
2023-03-22T02:51:00.403Z,99.90
2023-03-22T02:53:36.399Z,99.90
2023-03-22T02:56:13.450Z,99.90
2023-03-22T02:58:46.753Z,99.90
2023-03-22T03:01:29.111Z,99.90
2023-03-22T03:04:04.783Z,99.90
2023-03-22T03:06:35.823Z,99.90
2023-03-22T03:09:05.227Z,99.90
2023-03-22T03:11:32.572Z,99.90
2023-03-22T03:13:59.624Z,99.90
2023-03-22T03:16:29.400Z,99.90
2023-03-22T03:19:41.113Z,99.90
2023-03-22T03:22:33.442Z,99.90
2023-03-22T03:25:05.977Z,99.90
2023-03-22T03:27:40.679Z,99.90
2023-03-22T03:30:15.479Z,99.90
2023-03-22T03:32:56.450Z,99.90
2023-03-22T03:35:32.443Z,99.90
2023-03-22T03:38:21.291Z,99.90
2023-03-22T03:40:52.642Z,99.90
2023-03-22T03:43:20.713Z,99.90
2023-03-22T03:45:47.671Z,99.90
2023-03-22T03:48:24.114Z,99.90
2023-03-22T03:50:54.084Z,99.90
2023-03-22T03:53:20.860Z,99.90
2023-03-22T03:55:47.618Z,99.90
2023-03-22T03:58:16.178Z,99.90
2023-03-22T04:00:43.775Z,99.90
2023-03-22T04:03:10.626Z,99.90
2023-03-22T04:05:37.615Z,99.90
2023-03-22T04:08:04.402Z,99.90
2023-03-22T04:10:31.371Z,99.90
2023-03-22T04:12:58.097Z,99.90
2023-03-22T04:15:25.277Z,99.90
2023-03-22T04:17:54.080Z,99.90
2023-03-22T04:20:21.022Z,99.90
2023-03-22T04:22:49.082Z,99.90
2023-03-22T04:25:18.219Z,99.90
2023-03-22T04:27:50.933Z,99.90
2023-03-22T04:30:20.136Z,99.90
2023-03-22T04:32:48.876Z,99.90
2023-03-22T04:35:16.113Z,99.90
2023-03-22T04:37:43.281Z,99.90
2023-03-22T04:40:16.369Z,99.90
2023-03-22T04:42:44.262Z,99.90
2023-03-22T04:45:12.302Z,99.90
2023-03-22T04:47:39.172Z,99.90
2023-03-22T04:50:07.532Z,99.90
2023-03-22T04:52:34.251Z,99.90
2023-03-22T04:55:00.905Z,99.90
2023-03-22T04:57:27.664Z,99.90
2023-03-22T04:59:54.339Z,99.90
2023-03-22T05:02:21.207Z,99.90
2023-03-22T05:04:47.966Z,99.90
2023-03-22T05:07:14.685Z,99.90
2023-03-22T05:09:41.467Z,99.90
2023-03-22T05:12:08.191Z,99.90
2023-03-22T05:14:34.998Z,99.90
2023-03-22T05:17:01.840Z,99.90
2023-03-22T05:19:29.008Z,99.90
2023-03-22T05:21:58.613Z,99.90
2023-03-22T05:24:25.586Z,99.90
2023-03-22T05:26:53.957Z,99.90
2023-03-22T05:29:24.363Z,99.90
2023-03-22T05:31:51.178Z,99.90
2023-03-22T05:34:17.947Z,99.90
2023-03-22T05:36:44.773Z,99.90
2023-03-22T05:39:11.743Z,99.90
2023-03-22T05:41:38.426Z,99.90
2023-03-22T05:44:05.316Z,99.90
2023-03-22T05:46:32.103Z,99.90
2023-03-22T05:48:58.844Z,99.90
2023-03-22T05:51:25.640Z,99.90
2023-03-22T05:53:53.576Z,99.90
2023-03-22T05:56:24.403Z,99.90
2023-03-22T05:58:51.878Z,99.90
2023-03-22T06:01:20.461Z,99.90
2023-03-22T06:03:48.511Z,99.90
2023-03-22T06:06:15.878Z,99.90
2023-03-22T06:08:43.047Z,99.90
2023-03-22T06:11:10.687Z,99.90
2023-03-22T06:13:37.743Z,99.90
2023-03-22T06:16:05.580Z,99.90
2023-03-22T06:18:33.209Z,99.90
2023-03-22T06:21:00.523Z,99.90
2023-03-22T06:23:28.005Z,99.90
2023-03-22T06:25:54.919Z,99.90
2023-03-22T06:28:21.784Z,99.90
2023-03-22T06:30:48.599Z,99.90
2023-03-22T06:33:15.370Z,99.90
2023-03-22T06:35:42.191Z,99.90
2023-03-22T06:38:09.399Z,99.90
2023-03-22T06:40:36.151Z,99.90
2023-03-22T06:43:06.764Z,99.90
2023-03-22T06:45:33.871Z,99.90
2023-03-22T06:48:01.318Z,99.90
2023-03-22T06:50:29.245Z,99.90
2023-03-22T06:52:56.605Z,99.90
2023-03-22T06:55:24.096Z,99.90
2023-03-22T06:57:50.801Z,99.90
2023-03-22T07:00:17.970Z,99.90
2023-03-22T07:02:44.744Z,99.90
2023-03-22T07:05:11.568Z,99.90
2023-03-22T07:07:38.379Z,99.90
2023-03-22T07:10:07.771Z,99.90
2023-03-22T07:12:35.108Z,99.90
2023-03-22T07:15:02.588Z,99.90
2023-03-22T07:17:29.460Z,99.90
2023-03-22T07:19:56.464Z,99.90
2023-03-22T07:22:24.846Z,99.90
2023-03-22T07:24:57.673Z,99.90
2023-03-22T07:27:25.892Z,99.90
2023-03-22T07:29:52.710Z,99.90
2023-03-22T07:32:19.541Z,99.90
2023-03-22T07:34:46.421Z,99.90
2023-03-22T07:37:13.222Z,99.90
2023-03-22T07:39:40.150Z,99.90
2023-03-22T07:42:06.954Z,99.90
2023-03-22T07:44:33.736Z,99.90
2023-03-22T07:47:00.734Z,99.90
2023-03-22T07:49:27.575Z,99.90
2023-03-22T07:51:54.285Z,99.90
2023-03-22T07:54:33.076Z,99.90
2023-03-22T07:57:01.294Z,99.90
2023-03-22T07:59:28.188Z,99.90
2023-03-22T08:01:55.134Z,99.90
2023-03-22T08:04:22.552Z,99.90
2023-03-22T08:06:51.863Z,99.90
2023-03-22T08:09:18.633Z,99.90
2023-03-22T08:11:45.755Z,99.90
2023-03-22T08:14:12.450Z,99.90
2023-03-22T08:16:39.325Z,99.90
2023-03-22T08:19:06.709Z,99.90
2023-03-22T08:21:33.382Z,99.90
2023-03-22T08:24:00.037Z,99.90
2023-03-22T08:26:27.360Z,99.90
2023-03-22T08:28:54.101Z,99.90
2023-03-22T08:31:20.940Z,99.90
2023-03-22T08:33:48.018Z,99.90
2023-03-22T08:36:18.349Z,99.90
2023-03-22T08:38:45.413Z,99.90
2023-03-22T08:41:13.114Z,99.90
2023-03-22T08:43:39.978Z,99.90
2023-03-22T08:46:06.746Z,99.90
2023-03-22T08:48:35.779Z,99.90
2023-03-22T08:51:02.619Z,99.90
2023-03-22T08:53:29.599Z,99.90
2023-03-22T08:55:58.162Z,99.90
2023-03-22T08:58:24.992Z,99.90
2023-03-22T09:00:52.030Z,99.90
2023-03-22T09:03:18.917Z,99.90
2023-03-22T09:05:45.740Z,99.90
2023-03-22T09:08:19.151Z,99.90
2023-03-22T09:10:52.028Z,99.90
2023-03-22T09:13:19.273Z,99.90
2023-03-22T09:15:46.335Z,99.90
2023-03-22T09:18:13.621Z,99.90
2023-03-22T09:20:40.744Z,99.90
2023-03-22T09:23:07.738Z,99.90
2023-03-22T09:25:34.459Z,99.90
2023-03-22T09:28:01.391Z,99.90
2023-03-22T09:30:28.668Z,99.90
2023-03-22T09:32:55.606Z,99.90
2023-03-22T09:35:22.651Z,99.90
2023-03-22T09:37:49.575Z,99.90
2023-03-22T09:40:17.739Z,99.90
2023-03-22T09:42:48.024Z,99.90
2023-03-22T09:45:25.014Z,99.90
2023-03-22T09:47:54.826Z,99.90
2023-03-22T09:50:26.108Z,99.90
2023-03-22T09:52:53.719Z,99.90
2023-03-22T09:55:22.107Z,99.90
2023-03-22T09:58:01.166Z,99.90
2023-03-22T10:00:52.750Z,99.90
2023-03-22T10:03:19.538Z,99.90
2023-03-22T10:06:07.496Z,99.90
2023-03-22T10:08:52.934Z,99.90
2023-03-22T10:11:37.278Z,99.90
2023-03-22T10:14:18.948Z,99.90
2023-03-22T10:16:46.799Z,99.90
2023-03-22T10:19:20.827Z,99.90
2023-03-22T10:21:49.736Z,99.90
2023-03-22T10:24:26.476Z,99.90
2023-03-22T10:26:53.814Z,99.90
2023-03-22T10:29:23.480Z,99.90
2023-03-22T10:31:50.255Z,99.90
2023-03-22T10:34:28.028Z,99.90
2023-03-22T10:36:55.774Z,99.90
2023-03-22T10:39:33.624Z,99.90
2023-03-22T10:42:08.331Z,99.90
2023-03-22T10:44:48.597Z,99.90
2023-03-22T10:47:24.105Z,99.90
2023-03-22T10:49:55.083Z,99.90
2023-03-22T10:52:36.973Z,99.90
2023-03-22T10:55:08.719Z,99.90
2023-03-22T10:57:35.436Z,99.90
2023-03-22T11:00:09.733Z,99.90
2023-03-22T11:02:47.009Z,99.90
2023-03-22T11:05:24.219Z,99.90
2023-03-22T11:07:51.273Z,99.90
2023-03-22T11:10:27.582Z,99.90
2023-03-22T11:13:07.939Z,99.90
2023-03-22T11:15:38.883Z,99.90
2023-03-22T11:18:11.322Z,99.90
2023-03-22T11:20:42.008Z,99.90
2023-03-22T11:23:17.824Z,99.90
2023-03-22T11:25:48.076Z,99.90
2023-03-22T11:28:37.194Z,99.90
2023-03-22T11:31:08.557Z,99.90
2023-03-22T11:33:36.426Z,99.90
2023-03-22T11:36:16.055Z,99.90
2023-03-22T11:38:48.773Z,99.90
2023-03-22T11:41:28.162Z,99.90
2023-03-22T11:44:08.003Z,99.90
2023-03-22T11:46:36.379Z,99.90
2023-03-22T11:49:08.078Z,98.90
2023-03-22T11:51:37.779Z,98.60
2023-03-22T11:54:42.414Z,99.40
2023-03-22T11:57:19.243Z,98.80
2023-03-22T12:00:01.800Z,98.50
2023-03-22T12:02:32.534Z,97.80
2023-03-22T12:05:10.641Z,97.80
2023-03-22T12:07:41.268Z,97.50
2023-03-22T12:10:30.987Z,98.10
2023-03-22T12:13:03.353Z,97.20
2023-03-22T12:15:41.031Z,96.80
2023-03-22T12:18:27.530Z,96.70
2023-03-22T12:20:59.698Z,96.60
2023-03-22T12:23:29.537Z,95.50
2023-03-22T12:26:11.583Z,95.90
2023-03-22T12:28:43.322Z,95.60
2023-03-22T12:31:19.573Z,95.80
2023-03-22T12:33:53.400Z,96.10
2023-03-22T12:36:42.943Z,96.00
2023-03-22T12:39:27.755Z,95.20
2023-03-22T12:42:02.401Z,96.30
2023-03-22T12:44:42.320Z,95.90
2023-03-22T12:47:34.837Z,95.50
2023-03-22T12:50:18.348Z,95.30
2023-03-22T12:52:50.663Z,95.30
2023-03-22T12:55:32.236Z,95.40
2023-03-22T12:57:59.676Z,94.30
2023-03-22T13:00:44.213Z,94.60
2023-03-22T13:03:19.966Z,94.50
2023-03-22T13:05:50.333Z,94.60
2023-03-22T13:08:21.893Z,94.50
2023-03-22T13:10:59.537Z,94.90
2023-03-22T13:13:27.701Z,94.90
2023-03-22T13:15:59.674Z,94.30
2023-03-22T13:18:49.909Z,94.40
2023-03-22T13:21:22.338Z,94.30
2023-03-22T13:24:10.314Z,94.60
2023-03-22T13:26:47.815Z,93.50
2023-03-22T13:29:34.315Z,93.80
2023-03-22T13:32:04.452Z,93.90
2023-03-22T13:34:37.578Z,93.10
2023-03-22T13:37:22.728Z,93.50
2023-03-22T13:39:54.157Z,91.50
2023-03-22T13:42:26.641Z,88.60
2023-03-22T13:45:02.491Z,89.30
2023-03-22T13:47:45.390Z,88.00
2023-03-22T13:50:31.470Z,87.30
2023-03-22T13:53:07.624Z,87.50
2023-03-22T13:55:41.544Z,89.60
2023-03-22T13:58:36.187Z,88.90
2023-03-22T14:01:13.553Z,86.00
2023-03-22T14:03:45.576Z,86.30
2023-03-22T14:06:18.946Z,87.10
2023-03-22T14:08:48.456Z,88.30
2023-03-22T14:11:23.817Z,88.20
2023-03-22T14:13:56.235Z,86.40
2023-03-22T14:16:38.104Z,87.40
2023-03-22T14:19:07.141Z,86.10
2023-03-22T14:21:39.821Z,86.30
